createdAt,value
2022-09-07T00:03:24.958Z,57.12
2022-09-07T00:08:28.168Z,57.18
2022-09-07T00:13:34.299Z,57.34
2022-09-07T00:18:38.821Z,57.43
2022-09-07T00:23:45.814Z,57.62
2022-09-07T00:28:49.940Z,57.98
2022-09-07T00:33:54.782Z,58.16
2022-09-07T00:38:58.724Z,58.29
2022-09-07T00:44:42.486Z,58.36
2022-09-07T00:49:50.898Z,58.39
2022-09-07T00:55:02.908Z,58.50
2022-09-07T01:00:07.891Z,58.56
2022-09-07T01:05:48.662Z,58.65
2022-09-07T01:10:52.035Z,58.98
2022-09-07T01:16:16.226Z,59.03
2022-09-07T01:21:50.163Z,59.09
2022-09-07T01:27:43.284Z,59.22
2022-09-07T01:33:26.400Z,59.11
2022-09-07T01:38:54.840Z,59.25
2022-09-07T01:44:18.799Z,59.20
2022-09-07T01:49:37.376Z,59.43
2022-09-07T01:54:55.470Z,59.69
2022-09-07T02:00:16.781Z,59.68
2022-09-07T02:05:52.120Z,59.74
2022-09-07T02:11:08.848Z,59.74
2022-09-07T02:16:20.522Z,59.72
2022-09-07T02:21:38.618Z,59.57
2022-09-07T02:26:42.667Z,59.66
2022-09-07T02:31:50.304Z,59.85
2022-09-07T02:36:54.844Z,60.05
2022-09-07T02:41:57.998Z,60.18
2022-09-07T02:47:20.985Z,60.25
2022-09-07T02:52:48.037Z,60.24
2022-09-07T02:58:28.545Z,60.29
2022-09-07T03:04:21.845Z,60.24
2022-09-07T03:09:32.991Z,60.20
2022-09-07T03:14:40.513Z,60.41
2022-09-07T03:19:46.600Z,60.44
2022-09-07T03:24:49.664Z,60.37
2022-09-07T03:29:52.851Z,60.46
2022-09-07T03:34:56.751Z,60.56
2022-09-07T03:39:59.890Z,60.39
2022-09-07T03:45:03.649Z,60.69
2022-09-07T03:50:07.554Z,61.06
2022-09-07T03:55:11.191Z,60.97
2022-09-07T04:00:14.891Z,61.01
2022-09-07T04:05:18.121Z,60.94
2022-09-07T04:10:21.202Z,60.94
2022-09-07T04:15:24.633Z,60.90
2022-09-07T04:20:28.551Z,61.19
2022-09-07T04:25:35.095Z,61.25
2022-09-07T04:30:38.212Z,61.40
2022-09-07T04:35:43.109Z,61.62
2022-09-07T04:40:46.180Z,61.66
2022-09-07T04:45:49.286Z,61.76
2022-09-07T04:50:52.449Z,61.97
2022-09-07T04:55:58.408Z,61.98
2022-09-07T05:01:06.371Z,61.69
2022-09-07T05:06:10.456Z,61.38
2022-09-07T05:11:15.226Z,61.32
2022-09-07T05:16:22.940Z,61.23
2022-09-07T05:21:30.037Z,60.85
2022-09-07T05:26:36.400Z,59.32
2022-09-07T05:31:39.516Z,53.08
2022-09-07T05:36:42.604Z,45.48
2022-09-07T05:41:45.697Z,43.07
2022-09-07T05:46:48.847Z,44.16
2022-09-07T05:51:51.911Z,45.73
2022-09-07T05:56:54.962Z,46.74
2022-09-07T06:01:58.137Z,48.31
2022-09-07T06:12:24.252Z,50.58
2022-09-07T06:17:31.327Z,51.36
2022-09-07T06:22:38.395Z,51.93
2022-09-07T06:27:41.450Z,52.48
2022-09-07T06:32:44.949Z,52.83
2022-09-07T06:37:48.365Z,52.56
2022-09-07T06:42:52.492Z,52.22
2022-09-07T06:47:55.621Z,52.62
2022-09-07T06:58:22.221Z,52.99
2022-09-07T07:03:25.364Z,52.93
2022-09-07T07:08:28.531Z,52.59
2022-09-07T07:13:31.808Z,52.74
2022-09-07T07:18:36.386Z,52.59
2022-09-07T07:23:40.520Z,52.29
2022-09-07T07:29:04.777Z,51.98
2022-09-07T07:34:08.804Z,51.54
2022-09-07T07:44:34.851Z,50.88
2022-09-07T07:49:37.695Z,50.65
2022-09-07T07:54:40.731Z,50.28
2022-09-07T07:59:43.763Z,49.45
2022-09-07T08:04:46.832Z,49.44
2022-09-07T08:09:50.046Z,49.18
2022-09-07T08:14:54.293Z,49.00
2022-09-07T08:19:57.419Z,48.49
2022-09-07T08:25:00.674Z,48.09
2022-09-07T08:30:04.220Z,47.69
2022-09-07T08:35:08.270Z,47.43
2022-09-07T08:40:19.739Z,47.33
2022-09-07T08:45:48.748Z,47.52
2022-09-07T08:51:12.173Z,47.75
2022-09-07T08:56:33.439Z,47.73
2022-09-07T09:01:42.486Z,47.73
2022-09-07T09:07:24.294Z,47.84
2022-09-07T09:12:52.562Z,47.39
2022-09-07T09:18:31.531Z,47.29
2022-09-07T09:23:40.881Z,47.06
2022-09-07T09:28:44.263Z,47.00
2022-09-07T09:34:15.321Z,46.93
2022-09-07T09:39:32.956Z,46.51
2022-09-07T09:44:38.538Z,44.93
2022-09-07T09:49:41.748Z,45.76
2022-09-07T09:54:51.377Z,45.86
2022-09-07T10:00:06.909Z,45.03
2022-09-07T10:05:45.654Z,45.39
2022-09-07T10:11:04.833Z,45.18
2022-09-07T10:16:10.398Z,45.94
2022-09-07T10:21:30.997Z,45.50
2022-09-07T10:26:39.316Z,45.16
2022-09-07T10:31:54.734Z,46.00
2022-09-07T10:37:10.685Z,45.85
2022-09-07T10:42:29.310Z,45.81
2022-09-07T10:47:48.756Z,44.87
2022-09-07T10:53:13.405Z,45.21
2022-09-07T10:59:02.777Z,45.15
2022-09-07T11:04:53.133Z,44.72
2022-09-07T11:10:15.332Z,44.19
2022-09-07T11:15:50.761Z,43.13
2022-09-07T11:20:59.138Z,43.43
2022-09-07T11:26:54.131Z,43.58
2022-09-07T11:32:05.045Z,43.21
2022-09-07T11:37:27.129Z,43.70
2022-09-07T11:43:37.303Z,43.84
2022-09-07T11:49:06.384Z,42.73
2022-09-07T11:54:32.335Z,42.69
2022-09-07T11:59:53.867Z,42.29
2022-09-07T12:05:07.516Z,42.57
2022-09-07T12:10:37.978Z,42.62
2022-09-07T12:16:10.229Z,42.44
2022-09-07T12:21:53.201Z,41.15
2022-09-07T12:26:59.388Z,41.83
2022-09-07T12:32:53.103Z,42.58
2022-09-07T12:37:27.515Z,42.27
2022-09-07T12:42:32.248Z,40.86
2022-09-07T12:47:35.701Z,41.76
2022-09-07T12:52:57.710Z,41.53
2022-09-07T12:58:19.588Z,40.19
2022-09-07T13:04:07.755Z,39.95
2022-09-07T13:09:37.739Z,41.27
2022-09-07T13:14:42.858Z,40.61
2022-09-07T13:19:55.181Z,40.67
2022-09-07T13:25:03.801Z,40.75
2022-09-07T13:30:16.512Z,40.79
2022-09-07T13:35:24.074Z,39.90
2022-09-07T13:40:45.818Z,39.56
2022-09-07T13:45:54.848Z,39.67
2022-09-07T13:51:10.812Z,39.99
2022-09-07T13:56:38.509Z,40.47
2022-09-07T14:01:47.747Z,39.07
2022-09-07T14:06:51.053Z,39.68
2022-09-07T14:11:55.164Z,40.49
2022-09-07T14:17:08.623Z,40.94
2022-09-07T14:22:26.684Z,40.52
2022-09-07T14:27:39.457Z,41.05
2022-09-07T14:32:43.946Z,42.15
2022-09-07T14:37:49.255Z,42.64
2022-09-07T14:42:55.578Z,42.93
2022-09-07T14:47:59.517Z,41.40
2022-09-07T14:58:34.942Z,41.53
2022-09-07T15:03:43.709Z,41.76
2022-09-07T15:08:49.383Z,41.65
2022-09-07T15:14:09.642Z,43.11
2022-09-07T15:19:15.506Z,42.46
2022-09-07T15:24:18.843Z,43.01
2022-09-07T15:29:22.326Z,42.09
2022-09-07T15:34:26.442Z,42.69
2022-09-07T15:39:34.694Z,42.64
2022-09-07T15:44:38.127Z,42.44
2022-09-07T15:49:49.997Z,41.90
2022-09-07T15:54:54.018Z,42.25
2022-09-07T15:59:58.312Z,41.81
2022-09-07T16:05:01.419Z,41.54
2022-09-07T16:10:08.795Z,41.47
2022-09-07T16:15:12.732Z,41.71
2022-09-07T16:20:16.730Z,41.26
2022-09-07T16:25:20.475Z,41.46
2022-09-07T16:30:23.543Z,41.59
2022-09-07T16:35:26.691Z,41.63
2022-09-07T16:40:29.907Z,41.72
2022-09-07T16:51:01.710Z,42.10
2022-09-07T16:56:18.879Z,42.38
2022-09-07T17:01:26.429Z,42.56
2022-09-07T17:06:31.327Z,42.80
2022-09-07T17:11:36.550Z,42.88
2022-09-07T17:16:41.744Z,43.05
2022-09-07T17:21:46.328Z,43.29
2022-09-07T17:26:49.643Z,43.31
2022-09-07T17:37:16.011Z,43.83
2022-09-07T17:42:19.173Z,44.18
2022-09-07T17:47:22.184Z,44.40
2022-09-07T17:52:25.880Z,44.59
2022-09-07T17:57:29.169Z,44.79
2022-09-07T18:02:33.048Z,44.99
2022-09-07T18:07:36.081Z,45.16
2022-09-07T18:12:39.242Z,45.21
2022-09-07T18:17:42.395Z,45.33
2022-09-07T18:22:46.191Z,45.51
2022-09-07T18:29:03.370Z,45.60
2022-09-07T18:33:12.326Z,45.65
2022-09-07T18:38:15.405Z,45.77
2022-09-07T18:43:18.419Z,45.77
2022-09-07T18:48:21.441Z,45.82
2022-09-07T18:53:24.896Z,45.84
2022-09-07T18:58:27.741Z,45.76
2022-09-07T19:03:31.773Z,45.65
2022-09-07T19:08:38.207Z,45.81
2022-09-07T19:13:41.463Z,45.76
2022-09-07T19:18:57.445Z,45.86
2022-09-07T19:24:04.336Z,46.56
2022-09-07T19:29:15.549Z,47.24
2022-09-07T19:34:18.765Z,47.83
2022-09-07T19:39:21.810Z,48.00
2022-09-07T19:44:25.006Z,48.10
2022-09-07T19:49:28.769Z,48.27
2022-09-07T19:54:31.896Z,48.83
2022-09-07T19:59:34.953Z,49.12
2022-09-07T20:04:38.278Z,49.87
2022-09-07T20:09:41.781Z,50.28
2022-09-07T20:14:45.537Z,50.53
2022-09-07T20:19:48.658Z,50.90
2022-09-07T20:24:51.706Z,50.82
2022-09-07T20:29:54.847Z,50.15
2022-09-07T20:34:58.443Z,50.45
2022-09-07T20:40:01.803Z,50.45
2022-09-07T20:45:05.128Z,50.34
2022-09-07T20:50:08.570Z,50.20
2022-09-07T20:55:11.715Z,50.50
2022-09-07T21:00:15.060Z,50.44
2022-09-07T21:05:18.137Z,50.74
2022-09-07T21:10:21.573Z,51.12
2022-09-07T21:15:29.385Z,50.91
2022-09-07T21:20:32.727Z,50.76
2022-09-07T21:25:43.093Z,50.90
2022-09-07T21:30:59.131Z,51.19
2022-09-07T21:36:12.376Z,51.63
2022-09-07T21:41:17.274Z,51.74
2022-09-07T21:46:20.365Z,51.21
2022-09-07T21:51:24.919Z,50.69
2022-09-07T21:56:30.191Z,50.67
2022-09-07T22:01:33.487Z,50.84
2022-09-07T22:06:37.923Z,50.76
2022-09-07T22:11:44.180Z,50.76
2022-09-07T22:16:49.095Z,50.85
2022-09-07T22:21:53.541Z,50.84
2022-09-07T22:26:57.220Z,51.06
2022-09-07T22:32:00.223Z,50.98
2022-09-07T22:37:03.230Z,51.05
2022-09-07T22:42:06.340Z,51.17
2022-09-07T22:47:10.795Z,51.45
2022-09-07T22:52:13.851Z,51.46
2022-09-07T22:57:16.885Z,52.07
2022-09-07T23:02:19.895Z,52.82
2022-09-07T23:07:22.923Z,52.83
2022-09-07T23:12:25.944Z,52.57
2022-09-07T23:17:28.942Z,52.81
2022-09-07T23:22:32.139Z,53.14
2022-09-07T23:27:35.528Z,53.10
2022-09-07T23:32:38.561Z,53.37
2022-09-07T23:37:41.566Z,53.18
2022-09-07T23:42:44.637Z,53.31
2022-09-07T23:47:47.712Z,53.07
2022-09-07T23:52:50.748Z,53.26
2022-09-07T23:57:53.752Z,52.94
